Time;durP1;ratioP1;P1;durP2;ratioP2;P2;SDS_P1;SDS_P2;PMS_P1;PMS_P2;Temp;Humidity;BMP_temperature;BMP_pressure;BME280_temperature;BME280_humidity;BME280_pressure;Samples;Min_cycle;Max_cycle;Signal;HPM_P1;HPM_P2
2023/02/03 00:00:08;;;;;;;23.65;13.45;;;7.80;99.90;;;;;;5056435;28;20041;-80
2023/02/03 00:02:33;;;;;;;15.15;9.13;;;7.80;99.90;;;;;;5083849;28;20020;-80
2023/02/03 00:04:59;;;;;;;19.75;13.48;;;7.80;99.90;;;;;;5055509;28;20035;-80
2023/02/03 00:07:24;;;;;;;25.42;13.63;;;7.90;99.90;;;;;;5089783;28;20028;-80
2023/02/03 00:09:50;;;;;;;14.50;8.35;;;7.90;99.90;;;;;;5052548;28;20043;-80
2023/02/03 00:12:15;;;;;;;26.50;9.32;;;7.80;99.90;;;;;;5072422;28;20020;-80
2023/02/03 00:14:41;;;;;;;19.05;10.40;;;7.90;99.90;;;;;;5056896;28;20036;-79
2023/02/03 00:17:06;;;;;;;18.00;10.95;;;7.90;99.90;;;;;;5087136;28;20055;-80
2023/02/03 00:19:32;;;;;;;25.35;11.98;;;7.90;99.90;;;;;;5071707;28;20570;-79
2023/02/03 00:21:58;;;;;;;10.95;6.93;;;7.90;99.90;;;;;;5070306;28;20036;-80
2023/02/03 00:24:23;;;;;;;21.75;10.82;;;7.90;99.90;;;;;;5072717;28;20032;-80
2023/02/03 00:26:49;;;;;;;17.30;11.13;;;7.90;99.90;;;;;;5055105;28;20062;-80
2023/02/03 00:29:14;;;;;;;15.55;9.57;;;7.90;99.90;;;;;;5070930;28;20032;-80
2023/02/03 00:31:40;;;;;;;15.45;8.45;;;7.90;99.90;;;;;;5086634;28;20103;-80
2023/02/03 00:34:05;;;;;;;19.35;10.20;;;7.90;99.90;;;;;;5086864;28;20040;-80
2023/02/03 00:36:31;;;;;;;26.05;14.55;;;7.90;99.90;;;;;;5089421;28;20028;-80
2023/02/03 00:38:56;;;;;;;13.05;8.00;;;7.90;99.90;;;;;;5056019;28;20036;-80
2023/02/03 00:41:22;;;;;;;20.60;13.15;;;7.90;99.90;;;;;;5071635;28;20036;-81
2023/02/03 00:43:48;;;;;;;18.55;8.80;;;7.90;99.90;;;;;;5069246;28;20032;-82
2023/02/03 00:46:13;;;;;;;19.17;10.85;;;7.90;99.90;;;;;;5093816;28;20073;-82
2023/02/03 00:48:39;;;;;;;21.63;11.23;;;7.90;99.90;;;;;;5075433;28;20073;-83
2023/02/03 00:51:05;;;;;;;21.10;10.05;;;7.90;99.90;;;;;;5057833;27;20129;-82
2023/02/03 00:53:30;;;;;;;18.95;10.75;;;7.90;99.90;;;;;;5054290;28;20065;-82
2023/02/03 00:55:56;;;;;;;18.88;10.98;;;7.90;99.90;;;;;;5055232;28;20090;-82
2023/02/03 00:58:22;;;;;;;19.75;11.65;;;7.90;99.90;;;;;;5085758;28;20127;-82
2023/02/03 01:00:47;;;;;;;18.83;8.25;;;7.90;99.90;;;;;;5075026;28;20106;-82
2023/02/03 01:03:13;;;;;;;21.52;11.38;;;8.00;99.90;;;;;;5058828;28;20028;-82
2023/02/03 01:05:38;;;;;;;16.92;7.70;;;8.00;99.90;;;;;;5069951;28;20048;-82
2023/02/03 01:08:04;;;;;;;17.38;9.60;;;8.00;99.90;;;;;;5053827;28;20056;-82
2023/02/03 01:10:29;;;;;;;23.13;13.98;;;7.90;99.90;;;;;;5070686;28;20020;-81
2023/02/03 01:12:55;;;;;;;17.17;10.65;;;7.90;99.90;;;;;;5088347;28;20562;-82
2023/02/03 01:15:21;;;;;;;21.60;9.73;;;7.90;99.90;;;;;;5074901;28;20032;-82
2023/02/03 01:17:46;;;;;;;20.77;10.07;;;8.00;99.90;;;;;;5091441;28;20548;-82
2023/02/03 01:20:12;;;;;;;25.55;12.15;;;8.00;99.90;;;;;;5049953;28;20024;-82
2023/02/03 01:22:38;;;;;;;21.30;12.30;;;8.00;99.90;;;;;;5065892;28;20020;-83
2023/02/03 01:25:04;;;;;;;24.42;10.70;;;8.00;99.90;;;;;;5055549;28;20027;-82
2023/02/03 01:27:32;;;;;;;14.75;8.63;;;8.00;99.90;;;;;;5091367;28;20028;-82
2023/02/03 01:29:57;;;;;;;11.02;5.75;;;8.00;99.90;;;;;;5086782;28;20035;-81
2023/02/03 01:32:23;;;;;;;15.43;10.32;;;8.00;99.90;;;;;;5086092;28;20036;-82
2023/02/03 01:34:48;;;;;;;18.85;10.60;;;8.10;99.90;;;;;;5090457;28;20052;-81
2023/02/03 01:37:16;;;;;;;20.15;12.13;;;8.00;99.90;;;;;;5046381;28;20036;-82
2023/02/03 01:39:41;;;;;;;23.00;12.85;;;8.10;99.90;;;;;;5018387;28;20496;-82
2023/02/03 01:42:09;;;;;;;20.60;9.85;;;8.00;99.90;;;;;;5068980;28;20077;-81
2023/02/03 01:44:39;;;;;;;14.60;9.68;;;8.10;99.90;;;;;;5053490;27;20044;-82
2023/02/03 01:47:16;;;;;;;19.60;12.27;;;8.00;99.90;;;;;;5086064;28;20547;-82
2023/02/03 01:49:43;;;;;;;24.65;11.65;;;8.10;99.90;;;;;;5084393;27;20054;-82
2023/02/03 01:52:08;;;;;;;20.95;7.95;;;8.10;99.90;;;;;;5057089;28;20035;-82
2023/02/03 01:54:36;;;;;;;17.38;11.70;;;8.10;99.90;;;;;;5073990;28;20532;-81
2023/02/03 01:57:05;;;;;;;14.73;9.02;;;8.10;99.90;;;;;;5057628;28;20036;-82
2023/02/03 01:59:30;;;;;;;14.85;9.00;;;8.10;99.90;;;;;;5059369;28;20473;-81
2023/02/03 02:01:56;;;;;;;23.80;13.70;;;8.10;99.90;;;;;;5069738;28;20122;-81
2023/02/03 02:04:22;;;;;;;19.67;10.38;;;8.10;99.90;;;;;;5069111;28;20446;-81
2023/02/03 02:06:47;;;;;;;20.40;13.00;;;8.10;99.90;;;;;;5053395;28;20040;-81
2023/02/03 02:09:13;;;;;;;13.75;6.95;;;8.10;99.90;;;;;;5085290;28;20071;-81
2023/02/03 02:11:40;;;;;;;24.13;14.38;;;8.10;99.90;;;;;;5069236;28;20124;-82
2023/02/03 02:14:05;;;;;;;19.25;12.13;;;8.10;99.90;;;;;;5065355;28;20509;-81
2023/02/03 02:16:59;;;;;;;16.83;6.70;;;8.10;99.90;;;;;;5068278;28;20111;-80
2023/02/03 02:20:06;;;;;;;22.33;12.07;;;8.10;99.90;;;;;;5077864;28;20028;-82
2023/02/03 02:22:46;;;;;;;14.85;9.27;;;8.10;99.90;;;;;;5047905;28;20023;-81
2023/02/03 02:25:28;;;;;;;19.83;11.10;;;8.10;99.90;;;;;;5061372;27;20381;-82
2023/02/03 02:28:17;;;;;;;14.98;8.50;;;8.20;99.90;;;;;;5079796;28;20031;-82
2023/02/03 02:31:13;;;;;;;15.20;9.88;;;8.10;99.90;;;;;;5060147;28;20028;-82
2023/02/03 02:33:55;;;;;;;26.92;14.15;;;8.10;99.90;;;;;;5088213;28;20020;-82
2023/02/03 02:36:39;;;;;;;21.83;13.48;;;8.10;99.90;;;;;;5087671;28;20059;-82
2023/02/03 02:39:12;;;;;;;22.95;13.55;;;8.10;99.90;;;;;;5063100;27;20033;-81
2023/02/03 02:41:47;;;;;;;17.83;7.85;;;8.20;99.90;;;;;;5063559;28;20036;-81
2023/02/03 02:44:23;;;;;;;22.77;11.55;;;8.10;99.90;;;;;;5080465;28;20025;-81
2023/02/03 02:46:53;;;;;;;19.77;10.38;;;8.20;99.90;;;;;;5026893;28;20520;-81
2023/02/03 02:49:39;;;;;;;16.15;8.35;;;8.10;99.90;;;;;;5047766;28;20035;-81
2023/02/03 02:52:05;;;;;;;19.60;7.15;;;8.20;99.90;;;;;;5074205;28;20024;-82
2023/02/03 02:54:31;;;;;;;14.30;7.53;;;8.10;99.90;;;;;;5084328;28;20028;-81
2023/02/03 02:57:02;;;;;;;17.15;7.32;;;8.20;99.90;;;;;;5067991;28;20044;-81
2023/02/03 02:59:27;;;;;;;18.42;10.40;;;8.30;99.90;;;;;;5074569;28;20051;-81
2023/02/03 03:01:53;;;;;;;22.90;9.38;;;8.20;99.90;;;;;;5089969;28;20028;-82
2023/02/03 03:04:22;;;;;;;19.00;9.25;;;8.20;99.90;;;;;;5065876;28;20028;-82
2023/02/03 03:06:58;;;;;;;15.25;8.52;;;8.10;99.90;;;;;;5068922;28;20047;-81
2023/02/03 03:09:41;;;;;;;20.95;11.07;;;8.20;99.90;;;;;;5066319;28;20032;-81
2023/02/03 03:12:09;;;;;;;11.85;7.03;;;8.20;99.90;;;;;;5069268;28;20492;-81
2023/02/03 03:14:35;;;;;;;16.10;8.57;;;8.20;99.90;;;;;;5069961;28;20048;-81
2023/02/03 03:17:03;;;;;;;19.17;10.45;;;8.20;99.90;;;;;;5053362;28;20504;-81
2023/02/03 03:19:31;;;;;;;12.45;7.88;;;8.20;99.90;;;;;;5064372;28;20487;-82
2023/02/03 03:22:00;;;;;;;14.48;7.18;;;8.10;99.90;;;;;;5068433;28;20038;-82
2023/02/03 03:24:35;;;;;;;17.38;8.98;;;8.20;99.90;;;;;;5053327;28;20040;-82
2023/02/03 03:27:13;;;;;;;14.17;10.07;;;8.10;99.90;;;;;;5067457;28;20036;-81
2023/02/03 03:29:40;;;;;;;9.02;4.93;;;8.20;99.90;;;;;;5092077;28;20032;-81
2023/02/03 03:32:05;;;;;;;13.68;7.75;;;8.10;99.90;;;;;;5089111;28;20050;-81
2023/02/03 03:34:31;;;;;;;15.13;6.35;;;8.10;99.90;;;;;;5072776;28;20027;-79
2023/02/03 03:36:57;;;;;;;16.55;6.70;;;8.10;99.90;;;;;;5072582;28;20031;-79
2023/02/03 03:39:25;;;;;;;15.18;6.63;;;8.10;99.90;;;;;;5069270;28;20028;-79
2023/02/03 03:42:06;;;;;;;6.50;3.30;;;8.10;99.90;;;;;;5069774;28;20415;-79
2023/02/03 03:44:36;;;;;;;7.78;4.80;;;8.10;99.90;;;;;;5085209;28;20060;-79
2023/02/03 03:47:33;;;;;;;8.98;4.97;;;8.10;99.90;;;;;;5071920;28;20039;-79
2023/02/03 03:49:59;;;;;;;19.70;7.57;;;8.10;99.90;;;;;;5085449;28;20802;-79
2023/02/03 03:52:27;;;;;;;10.18;4.93;;;8.10;99.90;;;;;;5057634;27;20110;-79
2023/02/03 03:54:53;;;;;;;13.88;5.93;;;8.20;99.90;;;;;;5078755;28;20071;-79
2023/02/03 03:57:22;;;;;;;11.95;6.15;;;8.10;99.90;;;;;;5054402;28;20105;-79
2023/02/03 03:59:48;;;;;;;20.85;6.95;;;8.10;99.90;;;;;;5057204;28;20040;-79
2023/02/03 04:02:13;;;;;;;13.77;9.35;;;8.10;99.90;;;;;;5054363;28;20089;-79
2023/02/03 04:04:39;;;;;;;8.65;5.28;;;8.20;99.90;;;;;;5072865;28;20024;-79
2023/02/03 04:07:05;;;;;;;8.15;4.82;;;8.10;99.90;;;;;;5058060;28;20071;-79
2023/02/03 04:09:30;;;;;;;12.07;4.63;;;8.10;99.90;;;;;;5058166;28;20629;-79
2023/02/03 04:12:03;;;;;;;13.32;7.07;;;8.10;99.90;;;;;;5058069;28;20389;-79
2023/02/03 04:14:30;;;;;;;10.65;6.20;;;8.10;99.90;;;;;;5071764;28;20047;-79
2023/02/03 04:16:56;;;;;;;6.28;4.18;;;8.10;99.90;;;;;;5081867;28;20145;-79
2023/02/03 04:19:22;;;;;;;9.80;4.55;;;8.20;99.90;;;;;;5057921;28;20139;-79
2023/02/03 04:21:47;;;;;;;12.25;6.05;;;8.20;99.90;;;;;;5072554;28;20036;-79
2023/02/03 04:24:13;;;;;;;14.02;7.57;;;8.20;99.90;;;;;;5086720;28;20038;-79
2023/02/03 04:26:38;;;;;;;9.38;4.80;;;8.20;99.90;;;;;;5075988;28;20117;-79
2023/02/03 04:29:04;;;;;;;9.77;4.82;;;8.20;99.90;;;;;;5075404;28;20047;-79
2023/02/03 04:31:29;;;;;;;12.10;7.10;;;8.20;99.90;;;;;;5091136;28;20035;-79
2023/02/03 04:33:55;;;;;;;10.45;5.63;;;8.20;99.90;;;;;;5078168;28;20417;-79
2023/02/03 04:36:20;;;;;;;10.60;5.22;;;8.20;99.90;;;;;;5073470;28;20028;-79
2023/02/03 04:38:48;;;;;;;12.63;6.00;;;8.20;99.90;;;;;;5075140;28;20103;-79
2023/02/03 04:41:13;;;;;;;18.38;6.30;;;8.20;99.90;;;;;;5072588;28;20042;-79
2023/02/03 04:43:39;;;;;;;10.23;5.95;;;8.20;99.90;;;;;;5066023;28;20020;-79
2023/02/03 04:46:04;;;;;;;14.02;6.43;;;8.10;99.90;;;;;;5073161;28;20055;-79
2023/02/03 04:48:30;;;;;;;13.15;4.30;;;8.20;99.90;;;;;;5054586;28;20036;-79
2023/02/03 04:51:03;;;;;;;11.32;5.50;;;8.20;99.90;;;;;;5072732;28;20038;-79
2023/02/03 04:53:29;;;;;;;8.02;4.32;;;8.20;99.90;;;;;;5076307;28;20032;-79
2023/02/03 04:55:54;;;;;;;12.73;3.42;;;8.20;99.90;;;;;;5087075;28;20547;-79
2023/02/03 04:58:20;;;;;;;15.55;6.15;;;8.20;99.90;;;;;;5042431;28;20038;-79
2023/02/03 05:00:45;;;;;;;15.63;6.18;;;8.20;99.90;;;;;;5088891;28;20549;-79
2023/02/03 05:03:11;;;;;;;15.63;6.53;;;8.20;99.90;;;;;;5085553;28;20032;-79
2023/02/03 05:05:36;;;;;;;9.68;5.53;;;8.20;99.90;;;;;;5070226;28;21014;-79
2023/02/03 05:08:02;;;;;;;7.38;5.35;;;8.20;99.90;;;;;;5085630;28;20032;-79
2023/02/03 05:10:28;;;;;;;10.13;5.93;;;8.30;99.90;;;;;;5089855;28;20028;-79
2023/02/03 05:12:53;;;;;;;13.00;6.68;;;8.30;99.90;;;;;;5070097;28;20028;-79
2023/02/03 05:15:19;;;;;;;13.18;5.32;;;8.30;99.90;;;;;;5072269;28;20067;-79
2023/02/03 05:17:44;;;;;;;11.88;5.82;;;8.30;99.90;;;;;;5069997;28;20032;-79
2023/02/03 05:20:10;;;;;;;12.98;6.07;;;8.30;99.90;;;;;;5045085;28;20093;-79
2023/02/03 05:22:39;;;;;;;13.68;4.80;;;8.30;99.90;;;;;;5061153;28;20507;-79
2023/02/03 05:25:05;;;;;;;8.05;4.53;;;8.30;99.90;;;;;;5064629;28;20039;-79
2023/02/03 05:27:31;;;;;;;9.07;4.65;;;8.30;99.90;;;;;;5054835;28;20357;-79
2023/02/03 05:29:56;;;;;;;16.55;5.30;;;8.30;99.90;;;;;;5085570;28;20051;-78
2023/02/03 05:32:22;;;;;;;5.63;2.83;;;8.30;99.90;;;;;;5089102;28;20032;-79
2023/02/03 05:34:47;;;;;;;9.40;3.47;;;8.30;99.90;;;;;;5055973;28;20032;-78
2023/02/03 05:37:13;;;;;;;11.38;5.03;;;8.20;99.90;;;;;;5068480;28;20110;-79
2023/02/03 05:39:38;;;;;;;9.02;4.15;;;8.30;99.90;;;;;;5077978;28;20061;-79
2023/02/03 05:42:04;;;;;;;9.80;4.65;;;8.30;99.90;;;;;;5070060;28;20035;-78
2023/02/03 05:44:30;;;;;;;12.43;4.40;;;8.30;99.90;;;;;;5088247;28;20509;-78
2023/02/03 05:46:57;;;;;;;5.60;3.20;;;8.30;99.90;;;;;;5084978;28;20035;-78
2023/02/03 05:49:22;;;;;;;5.88;3.35;;;8.40;99.90;;;;;;5089169;28;20067;-78
2023/02/03 05:51:50;;;;;;;9.73;4.13;;;8.30;99.90;;;;;;5084306;28;20398;-79
2023/02/03 05:54:16;;;;;;;12.15;4.10;;;8.30;99.90;;;;;;5069162;28;20504;-78
2023/02/03 05:56:41;;;;;;;5.57;3.05;;;8.30;99.90;;;;;;5052603;28;20029;-78
2023/02/03 05:59:07;;;;;;;6.60;3.08;;;8.30;99.90;;;;;;5056021;28;20047;-78
2023/02/03 06:01:33;;;;;;;6.43;3.03;;;8.30;99.90;;;;;;5086621;28;20035;-79
2023/02/03 06:03:58;;;;;;;8.32;3.50;;;8.30;99.90;;;;;;5068305;28;20505;-78
2023/02/03 06:06:24;;;;;;;5.47;3.15;;;8.30;99.90;;;;;;5073438;28;20048;-78
2023/02/03 06:08:55;;;;;;;7.82;2.20;;;8.30;99.90;;;;;;5071639;28;20031;-78
2023/02/03 06:11:20;;;;;;;10.85;4.20;;;8.30;99.90;;;;;;5047036;28;20496;-78
2023/02/03 06:13:46;;;;;;;13.23;3.70;;;8.30;99.90;;;;;;5056509;28;20124;-78
2023/02/03 06:16:11;;;;;;;9.80;3.03;;;8.30;99.90;;;;;;5038067;28;20033;-79
2023/02/03 06:18:37;;;;;;;12.52;3.55;;;8.30;99.90;;;;;;5033800;28;20302;-78
2023/02/03 06:21:03;;;;;;;7.25;2.63;;;8.30;99.90;;;;;;5071530;28;20090;-78
2023/02/03 06:23:28;;;;;;;4.00;2.45;;;8.40;99.90;;;;;;5064475;28;20037;-79
2023/02/03 06:25:54;;;;;;;7.57;3.40;;;8.40;99.90;;;;;;5077233;28;20035;-79
2023/02/03 06:28:20;;;;;;;18.13;4.47;;;8.40;99.90;;;;;;5056987;28;20407;-78
2023/02/03 06:30:49;;;;;;;10.18;3.90;;;8.40;99.90;;;;;;5062283;28;20054;-78
2023/02/03 06:33:14;;;;;;;17.80;5.50;;;8.40;99.90;;;;;;5068863;27;20074;-78
2023/02/03 06:35:40;;;;;;;11.90;3.70;;;8.40;99.90;;;;;;5056883;28;20041;-78
2023/02/03 06:38:06;;;;;;;12.38;3.25;;;8.40;99.90;;;;;;5059890;28;20045;-79
2023/02/03 06:40:31;;;;;;;5.55;2.70;;;8.40;99.90;;;;;;5072604;28;20100;-78
2023/02/03 06:42:57;;;;;;;13.48;3.08;;;8.40;99.90;;;;;;5049070;28;20036;-78
2023/02/03 06:45:24;;;;;;;13.95;2.20;;;8.40;99.90;;;;;;5077561;28;20035;-78
2023/02/03 06:47:50;;;;;;;3.28;2.00;;;8.40;99.90;;;;;;5051824;28;20400;-78
2023/02/03 06:50:15;;;;;;;9.52;3.20;;;8.40;99.90;;;;;;5061387;28;20066;-78
2023/02/03 06:52:41;;;;;;;3.95;1.88;;;8.40;99.90;;;;;;5075599;27;20029;-78
2023/02/03 06:55:07;;;;;;;13.65;3.67;;;8.40;99.90;;;;;;5058317;28;20044;-78
2023/02/03 06:57:33;;;;;;;9.35;3.60;;;8.40;99.90;;;;;;5057635;28;20508;-78
2023/02/03 06:59:58;;;;;;;6.60;3.05;;;8.40;99.90;;;;;;5061820;28;20051;-77
2023/02/03 07:02:24;;;;;;;10.40;3.78;;;8.50;99.90;;;;;;5071465;28;20553;-77
2023/02/03 07:04:49;;;;;;;10.88;4.15;;;8.40;99.90;;;;;;5049399;28;20028;-77
2023/02/03 07:07:15;;;;;;;9.23;3.67;;;8.40;99.90;;;;;;5060659;28;20021;-78
2023/02/03 07:09:40;;;;;;;7.78;3.20;;;8.40;99.90;;;;;;5068113;28;20087;-80
2023/02/03 07:12:06;;;;;;;13.75;3.63;;;8.40;99.90;;;;;;5041783;28;20037;-80
2023/02/03 07:14:34;;;;;;;8.82;3.92;;;8.40;99.90;;;;;;5051115;28;20059;-76
2023/02/03 07:17:00;;;;;;;4.43;2.85;;;8.40;99.90;;;;;;5062636;28;20562;-77
2023/02/03 07:19:26;;;;;;;15.75;4.72;;;8.40;99.90;;;;;;5057936;28;20032;-77
2023/02/03 07:21:52;;;;;;;7.45;3.40;;;8.40;99.90;;;;;;5071319;28;20113;-77
2023/02/03 07:24:17;;;;;;;8.85;3.88;;;8.40;99.90;;;;;;5046160;28;20040;-77
2023/02/03 07:26:43;;;;;;;9.45;4.35;;;8.40;99.90;;;;;;5068062;27;20032;-77
2023/02/03 07:29:08;;;;;;;2.72;1.80;;;8.40;99.90;;;;;;5057539;28;20036;-80
2023/02/03 07:31:34;;;;;;;11.70;5.55;;;8.40;99.90;;;;;;5052792;28;20369;-79
2023/02/03 07:34:01;;;;;;;9.85;2.78;;;8.50;99.90;;;;;;5060365;28;20194;-80
2023/02/03 07:36:27;;;;;;;7.38;3.90;;;8.50;99.90;;;;;;5048907;28;20028;-77
2023/02/03 07:38:53;;;;;;;4.43;3.15;;;8.50;99.90;;;;;;5083509;27;20085;-77
2023/02/03 07:41:19;;;;;;;6.00;2.55;;;8.40;99.90;;;;;;5058478;28;20029;-77
2023/02/03 07:43:44;;;;;;;6.10;2.60;;;8.50;99.90;;;;;;5051489;27;20056;-79
2023/02/03 07:46:10;;;;;;;8.27;3.33;;;8.50;99.90;;;;;;5066098;28;20119;-79
2023/02/03 07:48:35;;;;;;;8.57;3.65;;;8.50;99.90;;;;;;5065559;28;20750;-77
2023/02/03 07:51:01;;;;;;;14.55;4.72;;;8.50;99.90;;;;;;5079686;28;20040;-77
2023/02/03 07:53:26;;;;;;;6.40;3.47;;;8.50;99.90;;;;;;5078389;28;20097;-78
2023/02/03 07:55:53;;;;;;;7.28;3.38;;;8.50;99.90;;;;;;5044623;28;20032;-77
2023/02/03 07:58:19;;;;;;;2.95;2.65;;;8.50;99.90;;;;;;5046953;28;20024;-77
2023/02/03 08:00:44;;;;;;;9.68;3.40;;;8.50;99.90;;;;;;5086777;27;20042;-78
2023/02/03 08:03:10;;;;;;;8.50;3.65;;;8.50;99.90;;;;;;5079418;28;20053;-78
2023/02/03 08:05:35;;;;;;;11.60;2.47;;;8.50;99.90;;;;;;5065035;28;20040;-77
2023/02/03 08:08:01;;;;;;;6.53;3.15;;;8.50;99.90;;;;;;5064512;28;20038;-78
2023/02/03 08:10:26;;;;;;;6.57;4.35;;;8.60;99.90;;;;;;5050263;28;20124;-77
2023/02/03 08:12:55;;;;;;;10.77;4.15;;;8.60;99.90;;;;;;5066933;28;20028;-77
2023/02/03 08:15:20;;;;;;;10.73;4.53;;;8.60;99.90;;;;;;5064788;28;20031;-77
2023/02/03 08:17:48;;;;;;;9.70;3.88;;;8.60;99.90;;;;;;5062407;28;20025;-77
2023/02/03 08:20:13;;;;;;;7.35;3.50;;;8.60;99.90;;;;;;5058042;28;20041;-77
2023/02/03 08:22:39;;;;;;;7.60;3.75;;;8.60;99.90;;;;;;5064359;28;20063;-78
2023/02/03 08:25:05;;;;;;;6.75;4.15;;;8.60;99.90;;;;;;5065419;28;20035;-77
2023/02/03 08:27:30;;;;;;;11.35;4.40;;;8.60;99.90;;;;;;5038950;28;20025;-78
2023/02/03 08:29:56;;;;;;;10.15;3.65;;;8.60;99.90;;;;;;5067090;28;20063;-77
2023/02/03 08:32:21;;;;;;;7.60;3.47;;;8.60;99.90;;;;;;5069154;28;20109;-77
2023/02/03 08:34:48;;;;;;;5.65;2.75;;;8.60;99.90;;;;;;5070018;28;20055;-78
2023/02/03 08:37:14;;;;;;;8.43;2.92;;;8.60;99.90;;;;;;5057370;28;20039;-78
2023/02/03 08:39:39;;;;;;;3.88;2.55;;;8.60;99.90;;;;;;5061644;28;20636;-77
2023/02/03 08:42:05;;;;;;;6.18;2.40;;;8.60;99.90;;;;;;5033521;28;20060;-78
2023/02/03 08:44:31;;;;;;;11.35;3.90;;;8.60;99.90;;;;;;5053306;28;20032;-77
2023/02/03 08:46:57;;;;;;;9.20;2.92;;;8.60;99.90;;;;;;5059906;28;20037;-77
2023/02/03 08:49:22;;;;;;;5.20;2.85;;;8.60;99.90;;;;;;5046115;28;20603;-77
2023/02/03 08:51:48;;;;;;;6.60;3.55;;;8.60;99.90;;;;;;5062757;28;20036;-77
2023/02/03 08:54:15;;;;;;;7.88;3.33;;;8.60;99.90;;;;;;5071890;28;20033;-77
2023/02/03 08:56:40;;;;;;;6.80;3.70;;;8.70;99.90;;;;;;5058280;27;20035;-77
2023/02/03 08:59:06;;;;;;;7.10;3.20;;;8.70;99.90;;;;;;5058260;28;20036;-78
2023/02/03 09:01:31;;;;;;;7.15;4.25;;;8.60;99.90;;;;;;5042256;28;20032;-78
2023/02/03 09:03:57;;;;;;;6.97;3.78;;;8.70;99.90;;;;;;5082117;28;20028;-78
2023/02/03 09:06:23;;;;;;;10.88;3.70;;;8.70;99.90;;;;;;5064128;28;20571;-78
2023/02/03 09:08:48;;;;;;;6.85;2.28;;;8.70;99.90;;;;;;5059246;28;20535;-78
2023/02/03 09:11:15;;;;;;;6.45;3.08;;;8.60;99.90;;;;;;5048202;28;20032;-78
2023/02/03 09:13:44;;;;;;;5.13;2.90;;;8.70;99.90;;;;;;5050188;28;20799;-78
2023/02/03 09:16:11;;;;;;;2.78;1.85;;;8.80;99.90;;;;;;5083108;28;20032;-77
2023/02/03 09:18:36;;;;;;;8.55;3.30;;;8.70;99.90;;;;;;5085427;28;20032;-78
2023/02/03 09:21:03;;;;;;;9.02;4.07;;;8.70;99.90;;;;;;5082367;28;21190;-77
2023/02/03 09:23:29;;;;;;;10.43;3.25;;;8.70;99.90;;;;;;5049201;28;20066;-78
2023/02/03 09:25:55;;;;;;;3.72;2.50;;;8.70;99.90;;;;;;5070254;28;20071;-80
2023/02/03 09:28:20;;;;;;;8.95;4.80;;;8.70;99.90;;;;;;5074646;28;20028;-78
2023/02/03 09:30:46;;;;;;;6.95;4.60;;;8.70;99.90;;;;;;5060016;28;20039;-79
2023/02/03 09:33:12;;;;;;;6.25;3.97;;;8.70;99.90;;;;;;5075414;28;20576;-79
2023/02/03 09:35:38;;;;;;;7.15;3.50;;;8.70;99.90;;;;;;5084871;28;20821;-79
2023/02/03 09:38:03;;;;;;;9.82;5.45;;;8.70;99.90;;;;;;5093840;28;20492;-79
2023/02/03 09:40:31;;;;;;;6.82;3.75;;;8.80;99.90;;;;;;5071576;28;20032;-79
2023/02/03 09:43:06;;;;;;;9.68;4.22;;;8.80;99.90;;;;;;5051676;28;20044;-79
2023/02/03 09:45:32;;;;;;;8.43;3.43;;;8.80;99.90;;;;;;5067758;28;20020;-79
2023/02/03 09:48:04;;;;;;;6.68;3.67;;;8.80;99.90;;;;;;5053749;28;20736;-79
2023/02/03 09:50:32;;;;;;;9.43;4.60;;;8.80;99.90;;;;;;5052837;28;20487;-79
2023/02/03 09:52:58;;;;;;;11.55;5.45;;;8.80;99.90;;;;;;5053367;28;20095;-79
2023/02/03 09:55:34;;;;;;;4.57;3.00;;;8.80;99.90;;;;;;5059666;28;20121;-78
2023/02/03 09:58:11;;;;;;;14.35;6.43;;;8.80;99.90;;;;;;5071029;28;20083;-79
2023/02/03 10:01:00;;;;;;;8.93;4.20;;;8.80;99.90;;;;;;5033074;28;20057;-79
2023/02/03 10:03:40;;;;;;;5.07;3.63;;;8.90;99.90;;;;;;5086561;27;21003;-79
2023/02/03 10:06:37;;;;;;;6.72;3.53;;;8.80;99.90;;;;;;5083602;28;20057;-79
2023/02/03 10:09:13;;;;;;;14.18;3.50;;;8.90;99.90;;;;;;5051470;28;20432;-79
2023/02/03 10:12:01;;;;;;;7.45;4.82;;;8.90;99.90;;;;;;5047468;28;20116;-79
2023/02/03 10:14:49;;;;;;;2.80;2.25;;;8.90;99.90;;;;;;5077172;28;20538;-79
2023/02/03 10:17:24;;;;;;;10.50;4.40;;;8.90;99.90;;;;;;5063227;28;20078;-79
2023/02/03 10:19:54;;;;;;;7.63;3.45;;;8.90;99.90;;;;;;5050884;28;20028;-78
2023/02/03 10:22:22;;;;;;;9.68;3.42;;;8.90;99.90;;;;;;5044770;28;20597;-79
2023/02/03 10:25:04;;;;;;;10.55;5.55;;;8.90;99.90;;;;;;5079998;28;20027;-77
2023/02/03 10:27:34;;;;;;;15.20;6.22;;;9.00;99.90;;;;;;5045260;28;20039;-79
2023/02/03 10:30:11;;;;;;;8.65;3.95;;;9.00;99.90;;;;;;5055314;28;20040;-79
2023/02/03 10:32:36;;;;;;;12.35;5.28;;;9.00;99.90;;;;;;5067955;27;20399;-79
2023/02/03 10:35:02;;;;;;;13.02;5.05;;;9.00;99.90;;;;;;5025695;28;20032;-79
2023/02/03 10:37:34;;;;;;;8.68;3.33;;;9.00;99.90;;;;;;5049547;28;20034;-79
2023/02/03 10:39:59;;;;;;;8.35;4.78;;;9.00;99.90;;;;;;5058507;28;20078;-79
2023/02/03 10:43:46;;;;;;;8.40;4.97;;;9.00;99.90;;;;;;5056684;27;20059;-79
2023/02/03 10:45:11;;;;;;;5.83;3.50;;;9.00;99.90;;;;;;5064259;28;20039;-79
2023/02/03 10:47:40;;;;;;;9.65;3.80;;;9.00;99.90;;;;;;5044651;28;20491;-79
2023/02/03 10:50:16;;;;;;;10.50;4.45;;;9.00;99.90;;;;;;5069855;28;20381;-79
2023/02/03 10:52:42;;;;;;;9.55;4.53;;;9.00;99.90;;;;;;5060658;28;20496;-79
2023/02/03 10:55:29;;;;;;;7.63;4.40;;;9.00;99.90;;;;;;5050032;28;20035;-79
2023/02/03 10:57:55;;;;;;;11.95;5.32;;;9.00;99.90;;;;;;5051727;28;20024;-79
2023/02/03 11:00:21;;;;;;;7.35;3.28;;;9.10;99.90;;;;;;5067462;28;20028;-79
2023/02/03 11:02:58;;;;;;;5.72;3.67;;;9.10;99.90;;;;;;5070962;28;20035;-78
2023/02/03 11:05:26;;;;;;;9.77;3.80;;;9.10;99.90;;;;;;5045333;28;20610;-78
2023/02/03 11:07:52;;;;;;;7.63;3.42;;;9.10;99.90;;;;;;5043926;28;20054;-79
2023/02/03 11:10:39;;;;;;;9.82;4.43;;;9.10;99.90;;;;;;5054980;28;20032;-79
2023/02/03 11:13:22;;;;;;;14.95;4.28;;;9.20;99.90;;;;;;5074878;28;20033;-79
2023/02/03 11:16:06;;;;;;;7.10;4.10;;;9.20;99.90;;;;;;5061752;27;20560;-79
2023/02/03 11:18:51;;;;;;;7.47;3.88;;;9.20;99.90;;;;;;5071810;28;20036;-79
2023/02/03 11:21:32;;;;;;;9.43;3.40;;;9.20;99.90;;;;;;5059592;28;20033;-79
2023/02/03 11:24:14;;;;;;;15.25;4.10;;;9.20;99.90;;;;;;5081916;28;20641;-79
2023/02/03 11:26:52;;;;;;;12.75;4.82;;;9.20;99.90;;;;;;5068194;28;20559;-79
2023/02/03 11:29:33;;;;;;;11.57;4.53;;;9.20;99.90;;;;;;5056176;28;20033;-79
2023/02/03 11:32:00;;;;;;;11.10;4.35;;;9.20;99.90;;;;;;5069542;28;20099;-80
2023/02/03 11:34:33;;;;;;;15.05;5.10;;;9.20;99.90;;;;;;5056642;28;20028;-79
2023/02/03 11:37:22;;;;;;;7.72;4.80;;;9.30;99.90;;;;;;5072147;28;20028;-79
2023/02/03 11:39:48;;;;;;;9.68;4.82;;;9.30;99.90;;;;;;5065018;28;20042;-79
2023/02/03 11:42:23;;;;;;;10.75;5.32;;;9.30;99.90;;;;;;5065449;28;20040;-79
2023/02/03 11:44:49;;;;;;;8.05;4.63;;;9.30;99.90;;;;;;5086384;28;20112;-77
2023/02/03 11:47:15;;;;;;;10.65;3.50;;;9.40;99.90;;;;;;5088717;28;20036;-79
2023/02/03 11:50:04;;;;;;;15.35;5.05;;;9.30;99.90;;;;;;5058327;28;20032;-79
2023/02/03 11:52:47;;;;;;;9.82;3.92;;;9.40;99.90;;;;;;5059939;28;20059;-79
2023/02/03 11:55:52;;;;;;;14.48;5.05;;;9.40;99.90;;;;;;5061397;28;20036;-79
2023/02/03 11:58:36;;;;;;;15.00;5.57;;;9.40;99.90;;;;;;5082831;28;20035;-79
2023/02/03 12:01:09;;;;;;;9.98;4.07;;;9.40;99.90;;;;;;5082522;28;20036;-78
2023/02/03 12:04:04;;;;;;;20.60;5.90;;;9.40;99.90;;;;;;5075339;28;20140;-77
2023/02/03 12:06:43;;;;;;;13.90;4.88;;;9.40;99.90;;;;;;5040364;28;20036;-77
2023/02/03 12:09:39;;;;;;;10.20;3.78;;;9.40;99.90;;;;;;5075858;28;20076;-78
2023/02/03 12:12:45;;;;;;;14.43;5.80;;;9.40;99.90;;;;;;5062016;28;20040;-78
2023/02/03 12:15:28;;;;;;;23.93;7.47;;;9.40;99.90;;;;;;5024667;28;20077;-78
2023/02/03 12:18:14;;;;;;;13.02;5.35;;;9.40;99.90;;;;;;5056701;28;20115;-78
2023/02/03 12:20:49;;;;;;;10.80;5.22;;;9.40;99.90;;;;;;5077343;28;20090;-78
2023/02/03 12:23:44;;;;;;;13.45;5.22;;;9.40;99.90;;;;;;5061327;28;20120;-78
2023/02/03 12:26:23;;;;;;;12.77;4.03;;;9.50;99.90;;;;;;5079073;28;20040;-78
2023/02/03 12:29:10;;;;;;;6.30;3.58;;;9.50;99.90;;;;;;5030499;28;20036;-78
2023/02/03 12:32:25;;;;;;;9.90;5.03;;;9.50;99.90;;;;;;5083514;27;20028;-78
2023/02/03 12:35:10;;;;;;;15.80;7.10;;;9.50;99.90;;;;;;5041791;28;20504;-78
2023/02/03 12:37:41;;;;;;;12.63;6.20;;;9.50;99.90;;;;;;5067270;28;21004;-78
2023/02/03 12:40:32;;;;;;;11.82;5.00;;;9.50;99.90;;;;;;5077644;27;20395;-78
2023/02/03 12:43:20;;;;;;;7.60;4.07;;;9.50;99.90;;;;;;5068787;28;20032;-78
2023/02/03 12:45:51;;;;;;;18.90;6.13;;;9.50;99.90;;;;;;5037971;28;20040;-78
2023/02/03 12:48:19;;;;;;;12.25;4.70;;;9.50;99.90;;;;;;5077196;28;20487;-78
2023/02/03 12:50:48;;;;;;;9.40;4.97;;;9.50;99.90;;;;;;5085703;28;20036;-78
2023/02/03 12:53:34;;;;;;;17.85;6.50;;;9.50;99.90;;;;;;5050063;28;20038;-78
2023/02/03 12:56:11;;;;;;;15.07;5.40;;;9.50;99.90;;;;;;5067771;28;20044;-78
2023/02/03 12:58:45;;;;;;;16.80;6.28;;;9.50;99.90;;;;;;5061399;28;20036;-78
2023/02/03 13:01:18;;;;;;;19.13;8.00;;;9.50;99.90;;;;;;5075595;28;20913;-78
2023/02/03 13:03:54;;;;;;;16.23;8.75;;;9.50;99.90;;;;;;5046779;28;20051;-78